createdAt,value
2019-02-08T00:02:07.664Z,2.75
2019-02-08T00:04:38.514Z,3.23
2019-02-08T00:07:09.570Z,4.20
2019-02-08T00:09:40.523Z,3.07
2019-02-08T00:12:11.379Z,2.50
2019-02-08T00:14:42.334Z,3.03
2019-02-08T00:17:13.198Z,3.02
2019-02-08T00:19:44.139Z,2.87
2019-02-08T00:22:15.357Z,2.70
2019-02-08T00:24:46.199Z,2.57
2019-02-08T00:27:17.127Z,2.87
2019-02-08T00:29:48.068Z,2.80
2019-02-08T00:32:20.048Z,3.00
2019-02-08T00:34:50.922Z,2.62
2019-02-08T00:37:21.892Z,3.27
2019-02-08T00:39:52.774Z,2.98
2019-02-08T00:42:24.229Z,3.42
2019-02-08T00:44:55.200Z,3.12
2019-02-08T00:47:26.045Z,2.83
2019-02-08T00:49:57.217Z,3.33
2019-02-08T00:52:28.101Z,3.33
2019-02-08T00:54:58.967Z,2.98
2019-02-08T00:57:29.962Z,2.75
2019-02-08T01:00:01.767Z,2.80
2019-02-08T01:04:41.033Z,2.95
2019-02-08T01:07:12.341Z,2.90
2019-02-08T01:09:43.464Z,3.00
2019-02-08T01:12:14.390Z,2.92
2019-02-08T01:14:45.196Z,2.90
2019-02-08T01:17:16.121Z,3.00
2019-02-08T01:19:46.985Z,3.30
2019-02-08T01:22:18.247Z,3.17
2019-02-08T01:24:49.133Z,3.55
2019-02-08T01:27:20.008Z,3.65
2019-02-08T01:29:50.870Z,3.08
2019-02-08T01:32:22.080Z,3.12
2019-02-08T01:34:53.031Z,3.37
2019-02-08T01:37:23.898Z,2.93
2019-02-08T01:39:56.850Z,3.37
2019-02-08T01:42:27.499Z,2.70
2019-02-08T01:44:58.309Z,3.25
2019-02-08T01:47:29.203Z,3.33
2019-02-08T01:50:00.090Z,2.90
2019-02-08T01:52:31.051Z,3.42
2019-02-08T01:55:01.845Z,3.37
2019-02-08T01:57:32.707Z,2.90
2019-02-08T02:00:06.258Z,3.00
2019-02-08T02:02:37.311Z,3.35
2019-02-08T02:05:08.418Z,3.50
2019-02-08T02:07:39.286Z,3.70
2019-02-08T02:10:23.349Z,3.60
2019-02-08T02:12:54.194Z,4.37
2019-02-08T02:15:25.082Z,4.10
2019-02-08T02:17:57.138Z,4.00
2019-02-08T02:20:30.536Z,4.35
2019-02-08T02:23:01.742Z,4.07
2019-02-08T02:25:32.577Z,4.30
2019-02-08T02:28:03.634Z,4.53
2019-02-08T02:30:35.916Z,4.37
2019-02-08T02:33:10.225Z,3.80
2019-02-08T02:35:41.752Z,3.90
2019-02-08T02:38:12.893Z,3.50
2019-02-08T02:40:43.811Z,4.17
2019-02-08T02:43:14.672Z,4.27
2019-02-08T02:45:45.604Z,3.70
2019-02-08T02:48:16.397Z,3.50
2019-02-08T02:50:47.218Z,3.85
2019-02-08T02:53:18.061Z,3.60
2019-02-08T02:55:48.851Z,3.27
2019-02-08T02:58:20.724Z,3.33
2019-02-08T03:00:51.896Z,3.22
2019-02-08T03:03:22.898Z,3.22
2019-02-08T03:05:53.851Z,2.83
2019-02-08T03:08:24.695Z,3.10
2019-02-08T03:10:55.558Z,3.02
2019-02-08T03:13:26.422Z,3.12
2019-02-08T03:15:57.398Z,3.15
2019-02-08T03:18:28.218Z,2.58
2019-02-08T03:20:59.125Z,2.87
2019-02-08T03:23:29.979Z,2.15
2019-02-08T03:26:00.908Z,2.67
2019-02-08T03:28:31.757Z,2.50
2019-02-08T03:31:02.672Z,2.83
2019-02-08T03:33:35.504Z,2.40
2019-02-08T03:36:06.409Z,3.25
2019-02-08T03:38:37.175Z,2.57
2019-02-08T03:43:01.701Z,2.70
2019-02-08T03:45:36.917Z,2.53
2019-02-08T03:48:08.663Z,2.40
2019-02-08T03:50:39.525Z,2.60
2019-02-08T03:53:11.275Z,2.08
2019-02-08T03:55:42.296Z,2.40
2019-02-08T03:58:14.135Z,2.17
2019-02-08T04:01:03.622Z,1.77
2019-02-08T04:03:34.859Z,2.13
2019-02-08T04:06:06.490Z,2.15
2019-02-08T04:08:37.355Z,2.20
2019-02-08T04:11:08.209Z,2.10
2019-02-08T04:13:38.992Z,2.50
2019-02-08T04:16:09.921Z,2.10
2019-02-08T04:18:42.425Z,2.02
2019-02-08T04:21:14.745Z,2.37
2019-02-08T04:23:45.544Z,2.40
2019-02-08T04:26:16.476Z,2.35
2019-02-08T04:28:47.449Z,2.67
2019-02-08T04:31:18.307Z,2.25
2019-02-08T04:33:49.435Z,2.42
2019-02-08T04:36:20.280Z,5.22
2019-02-08T04:38:51.114Z,2.80
2019-02-08T04:41:21.996Z,2.40
2019-02-08T04:43:52.874Z,2.62
2019-02-08T04:46:23.680Z,3.00
2019-02-08T04:48:54.523Z,2.13
2019-02-08T04:51:25.791Z,2.80
2019-02-08T04:53:56.824Z,3.30
2019-02-08T04:56:27.604Z,3.10
2019-02-08T04:58:58.469Z,3.10
2019-02-08T05:01:31.086Z,3.33
2019-02-08T05:04:01.969Z,3.37
2019-02-08T05:06:35.132Z,3.83
2019-02-08T05:09:08.461Z,3.50
2019-02-08T05:11:41.712Z,3.62
2019-02-08T05:14:12.556Z,2.37
2019-02-08T05:16:43.617Z,2.73
2019-02-08T05:19:14.601Z,2.47
2019-02-08T05:21:45.372Z,2.43
2019-02-08T05:24:16.136Z,2.73
2019-02-08T05:26:47.065Z,2.43
2019-02-08T05:29:18.995Z,2.50
2019-02-08T05:31:51.419Z,2.60
2019-02-08T05:34:22.845Z,2.60
2019-02-08T05:36:53.812Z,2.60
2019-02-08T05:39:24.611Z,3.27
2019-02-08T05:41:57.436Z,2.60
2019-02-08T05:44:28.243Z,3.20
2019-02-08T05:46:59.109Z,2.50
2019-02-08T05:49:29.972Z,3.00
2019-02-08T05:52:02.373Z,3.10
2019-02-08T05:54:34.272Z,3.00
2019-02-08T05:57:05.284Z,3.47
2019-02-08T05:59:36.199Z,2.80
2019-02-08T06:02:08.915Z,2.90
2019-02-08T06:04:40.567Z,2.73
2019-02-08T06:07:11.472Z,3.07
2019-02-08T06:09:42.403Z,3.27
2019-02-08T06:12:13.243Z,3.03
2019-02-08T06:14:44.004Z,3.40
2019-02-08T06:17:14.925Z,3.33
2019-02-08T06:19:45.777Z,2.87
2019-02-08T06:22:18.713Z,3.07
2019-02-08T06:24:49.578Z,3.03
2019-02-08T06:27:21.428Z,3.30
2019-02-08T06:29:52.228Z,3.70
2019-02-08T06:32:24.218Z,3.07
2019-02-08T06:34:55.442Z,3.63
2019-02-08T06:37:26.223Z,4.10
2019-02-08T06:39:57.157Z,3.50
2019-02-08T06:42:29.842Z,3.40
2019-02-08T06:45:00.725Z,4.40
2019-02-08T06:47:31.540Z,3.93
2019-02-08T06:50:02.348Z,3.33
2019-02-08T06:52:33.329Z,3.43
2019-02-08T06:55:11.048Z,3.50
2019-02-08T06:57:51.131Z,4.23
2019-02-08T07:00:50.707Z,4.00
2019-02-08T07:03:43.634Z,3.30
2019-02-08T07:06:36.545Z,5.43
2019-02-08T07:09:43.412Z,4.17
2019-02-08T07:12:32.238Z,3.30
2019-02-08T07:15:17.700Z,3.80
2019-02-08T07:18:06.403Z,3.87
2019-02-08T07:20:53.198Z,3.80
2019-02-08T07:23:35.314Z,3.90
2019-02-08T07:26:24.020Z,4.00
2019-02-08T07:29:02.353Z,4.53
2019-02-08T07:31:55.181Z,4.03
2019-02-08T07:34:53.142Z,4.17
2019-02-08T07:37:39.156Z,3.73
2019-02-08T07:40:32.524Z,4.00
2019-02-08T07:43:13.998Z,3.67
2019-02-08T07:46:14.895Z,3.70
2019-02-08T07:49:08.201Z,3.43
2019-02-08T07:51:49.200Z,3.73
2019-02-08T07:54:49.103Z,3.37
2019-02-08T07:57:50.942Z,3.10
2019-02-08T08:00:51.323Z,2.87
2019-02-08T08:03:32.076Z,3.10
2019-02-08T08:06:15.828Z,3.00
2019-02-08T08:09:05.607Z,2.80
2019-02-08T08:11:47.540Z,3.20
2019-02-08T08:14:48.399Z,2.33
2019-02-08T08:17:47.502Z,2.97
2019-02-08T08:20:33.832Z,2.57
2019-02-08T08:23:23.855Z,2.57
2019-02-08T08:26:17.854Z,3.03
2019-02-08T08:29:02.747Z,2.40
2019-02-08T08:31:52.205Z,2.00
2019-02-08T08:34:44.050Z,2.10
2019-02-08T08:37:44.969Z,2.00
2019-02-08T08:40:56.396Z,2.10
2019-02-08T08:44:10.038Z,2.30
2019-02-08T08:47:18.982Z,1.50
2019-02-08T08:50:41.738Z,1.87
2019-02-08T08:53:37.746Z,1.77
2019-02-08T08:56:55.460Z,1.90
2019-02-08T08:59:44.205Z,1.87
2019-02-08T09:02:53.557Z,1.80
2019-02-08T09:06:11.198Z,1.80
2019-02-08T09:09:15.659Z,1.43
2019-02-08T09:12:10.766Z,2.10
2019-02-08T09:15:26.571Z,3.77
2019-02-08T09:18:28.247Z,4.37
2019-02-08T09:21:37.519Z,3.60
2019-02-08T09:24:58.796Z,2.93
2019-02-08T09:28:14.051Z,3.97
2019-02-08T09:31:12.202Z,2.17
2019-02-08T09:34:22.440Z,1.30
2019-02-08T09:37:28.649Z,1.60
2019-02-08T09:40:23.062Z,2.83
2019-02-08T09:43:26.539Z,2.90
2019-02-08T09:46:30.754Z,2.33
2019-02-08T09:49:31.233Z,1.70
2019-02-08T09:53:01.013Z,1.60
2019-02-08T09:56:17.588Z,1.33
2019-02-08T09:59:28.847Z,2.23
2019-02-08T10:02:35.700Z,2.30
2019-02-08T10:05:52.559Z,1.30
2019-02-08T10:09:23.538Z,1.30
2019-02-08T10:12:30.779Z,1.07
2019-02-08T10:15:38.549Z,1.47
2019-02-08T10:18:46.100Z,2.17
2019-02-08T10:22:22.200Z,1.90
2019-02-08T10:25:24.473Z,1.40
2019-02-08T10:28:41.279Z,1.70
2019-02-08T10:31:52.815Z,1.30
2019-02-08T10:35:09.845Z,1.27
2019-02-08T10:38:30.213Z,1.30
2019-02-08T10:41:51.219Z,1.83
2019-02-08T10:45:06.671Z,1.20
2019-02-08T10:48:28.524Z,0.90
2019-02-08T10:51:36.364Z,1.07
2019-02-08T10:54:47.520Z,1.17
2019-02-08T10:57:49.849Z,1.10
2019-02-08T11:01:03.786Z,1.03
2019-02-08T11:04:17.713Z,0.77
2019-02-08T11:07:33.261Z,1.30
2019-02-08T11:10:40.497Z,2.33
2019-02-08T11:14:08.222Z,1.43
2019-02-08T11:17:16.346Z,1.17
2019-02-08T11:19:54.971Z,1.40
2019-02-08T11:22:26.214Z,1.20
2019-02-08T11:24:57.157Z,1.00
2019-02-08T11:27:28.052Z,1.40
2019-02-08T11:29:58.934Z,1.37
2019-02-08T11:32:42.874Z,0.90
2019-02-08T11:35:02.391Z,1.80
2019-02-08T11:37:33.264Z,0.83
2019-02-08T11:40:05.702Z,1.30
2019-02-08T11:42:36.598Z,1.10
2019-02-08T11:45:08.438Z,1.00
2019-02-08T11:47:39.319Z,1.00
2019-02-08T11:50:14.593Z,1.47
2019-02-08T11:52:45.519Z,1.27
2019-02-08T11:55:16.634Z,1.00
2019-02-08T11:57:47.626Z,1.13
2019-02-08T12:00:25.796Z,1.10
2019-02-08T12:02:56.943Z,3.07
2019-02-08T12:05:27.982Z,4.30
2019-02-08T12:07:58.964Z,2.80
2019-02-08T12:10:29.925Z,1.00
2019-02-08T12:13:01.748Z,1.20
2019-02-08T12:15:33.042Z,1.63
2019-02-08T12:18:03.918Z,1.70
2019-02-08T12:20:36.492Z,1.23
2019-02-08T12:23:07.391Z,0.90
2019-02-08T12:25:38.306Z,1.60
2019-02-08T12:28:10.418Z,3.20
2019-02-08T12:30:42.086Z,1.13
2019-02-08T12:33:14.715Z,1.00
2019-02-08T12:35:45.532Z,1.27
2019-02-08T12:38:16.677Z,2.10
2019-02-08T12:40:47.706Z,1.20
2019-02-08T12:43:18.756Z,1.43
2019-02-08T12:45:49.631Z,1.00
2019-02-08T12:48:20.508Z,1.63
2019-02-08T12:50:51.471Z,1.10
2019-02-08T12:53:23.500Z,1.00
2019-02-08T12:55:55.513Z,1.10
2019-02-08T12:58:26.708Z,1.30
2019-02-08T13:00:58.017Z,1.17
2019-02-08T13:03:28.935Z,1.23
2019-02-08T13:05:59.882Z,1.03
2019-02-08T13:08:30.862Z,1.07
2019-02-08T13:11:01.790Z,1.40
2019-02-08T13:13:34.778Z,1.70
2019-02-08T13:16:05.995Z,1.43
2019-02-08T13:18:36.889Z,1.33
2019-02-08T13:21:07.868Z,1.37
2019-02-08T13:23:38.927Z,1.03
2019-02-08T13:26:10.126Z,1.10
2019-02-08T13:28:41.102Z,1.23
2019-02-08T13:31:12.121Z,0.97
2019-02-08T13:33:43.314Z,0.90
2019-02-08T13:36:15.722Z,1.30
2019-02-08T13:38:48.451Z,1.00
2019-02-08T13:41:19.334Z,2.07
2019-02-08T13:43:50.235Z,1.87
2019-02-08T13:46:21.437Z,2.27
2019-02-08T13:48:52.387Z,1.10
2019-02-08T13:51:23.471Z,1.43
2019-02-08T13:53:54.461Z,0.70
2019-02-08T13:56:25.409Z,0.97
2019-02-08T13:58:56.300Z,1.00
2019-02-08T14:01:27.163Z,1.03
2019-02-08T14:03:58.169Z,1.50
2019-02-08T14:06:29.106Z,1.50
2019-02-08T14:09:00.043Z,1.20
2019-02-08T14:11:30.969Z,0.90
2019-02-08T14:14:02.636Z,1.77
2019-02-08T14:16:33.928Z,3.60
2019-02-08T14:19:05.312Z,1.40
2019-02-08T14:21:36.276Z,0.93
2019-02-08T14:24:07.166Z,2.40
2019-02-08T14:26:38.176Z,1.40
2019-02-08T14:29:09.054Z,1.00
2019-02-08T14:31:40.070Z,1.13
2019-02-08T14:34:11.152Z,1.17
2019-02-08T14:36:42.125Z,1.00
2019-02-08T14:39:13.621Z,1.00
2019-02-08T14:41:44.593Z,4.07
2019-02-08T14:44:16.876Z,1.63
2019-02-08T14:46:49.039Z,1.33
2019-02-08T14:49:20.086Z,3.20
2019-02-08T14:51:50.983Z,6.53
2019-02-08T14:54:21.952Z,1.23
2019-02-08T14:56:52.960Z,4.97
2019-02-08T14:59:23.946Z,1.20
2019-02-08T15:01:54.877Z,1.73
2019-02-08T15:04:25.781Z,3.47
2019-02-08T15:06:56.711Z,2.67
2019-02-08T15:09:27.801Z,1.60
2019-02-08T15:11:58.884Z,1.00
2019-02-08T15:14:30.178Z,1.80
2019-02-08T15:17:01.211Z,3.17
2019-02-08T15:19:32.335Z,2.13
2019-02-08T15:22:03.346Z,1.60
2019-02-08T15:24:34.232Z,1.33
2019-02-08T15:27:05.173Z,1.97
2019-02-08T15:29:36.114Z,1.80
2019-02-08T15:32:07.038Z,0.90
2019-02-08T15:34:38.132Z,1.30
2019-02-08T15:37:09.387Z,1.20
2019-02-08T15:39:41.708Z,1.10
2019-02-08T15:42:12.733Z,1.30
2019-02-08T15:44:43.723Z,1.20
2019-02-08T15:47:15.337Z,1.37
2019-02-08T15:49:46.222Z,1.30
2019-02-08T15:52:17.246Z,1.30
2019-02-08T15:54:48.278Z,1.10
2019-02-08T15:57:19.381Z,1.27
2019-02-08T15:59:50.316Z,1.03
2019-02-08T16:02:23.140Z,1.43
2019-02-08T16:04:55.187Z,2.17
2019-02-08T16:07:26.117Z,2.20
2019-02-08T16:09:57.137Z,1.90
2019-02-08T16:12:28.044Z,2.23
2019-02-08T16:14:59.339Z,1.40
2019-02-08T16:17:30.460Z,1.20
2019-02-08T16:20:01.393Z,2.27
2019-02-08T16:22:32.326Z,1.10
2019-02-08T16:25:03.389Z,2.63
2019-02-08T16:27:39.721Z,1.43
2019-02-08T16:30:12.894Z,1.80
2019-02-08T16:32:43.864Z,1.67
2019-02-08T16:35:15.782Z,1.43
2019-02-08T16:37:46.773Z,1.90
2019-02-08T16:40:20.505Z,1.20
2019-02-08T16:42:51.382Z,0.97
2019-02-08T16:45:24.964Z,1.70
2019-02-08T16:47:56.631Z,1.30
2019-02-08T16:50:29.006Z,1.33
2019-02-08T16:53:01.852Z,1.37
2019-02-08T16:55:32.898Z,1.03
2019-02-08T16:58:05.144Z,1.67
2019-02-08T17:00:36.581Z,2.40
2019-02-08T17:03:09.873Z,1.13
2019-02-08T17:05:41.126Z,1.50
2019-02-08T17:08:12.386Z,1.20
2019-02-08T17:10:43.522Z,1.73
2019-02-08T17:13:15.988Z,1.37
2019-02-08T17:15:48.189Z,1.10
2019-02-08T17:18:19.119Z,1.27
2019-02-08T17:20:50.219Z,1.70
2019-02-08T17:23:21.137Z,1.03
2019-02-08T17:25:53.178Z,0.87
2019-02-08T17:28:24.141Z,1.20
2019-02-08T17:30:55.137Z,2.10
2019-02-08T17:33:26.284Z,4.20
2019-02-08T17:35:57.230Z,2.67
2019-02-08T17:38:28.161Z,1.67
2019-02-08T17:40:59.489Z,2.07
2019-02-08T17:43:30.639Z,1.77
2019-02-08T17:46:01.638Z,1.73
2019-02-08T17:48:32.653Z,1.87
2019-02-08T17:51:03.588Z,2.47
2019-02-08T17:53:34.651Z,2.30
2019-02-08T17:56:05.703Z,1.83
2019-02-08T17:58:36.785Z,1.97
2019-02-08T18:01:07.810Z,1.53
2019-02-08T18:03:38.927Z,1.17
2019-02-08T18:06:09.836Z,2.10
2019-02-08T18:08:40.730Z,1.70
2019-02-08T18:11:11.854Z,3.07
2019-02-08T18:13:42.908Z,1.60
2019-02-08T18:16:14.946Z,1.37
2019-02-08T18:18:46.403Z,1.20
2019-02-08T18:21:17.624Z,1.20
2019-02-08T18:23:48.608Z,2.00
2019-02-08T18:26:19.869Z,1.30
2019-02-08T18:28:50.815Z,1.53
2019-02-08T18:31:21.922Z,2.00
2019-02-08T18:33:52.811Z,1.43
2019-02-08T18:36:24.111Z,1.20
2019-02-08T18:38:57.306Z,1.47
2019-02-08T18:41:29.115Z,1.40
2019-02-08T18:44:01.946Z,1.60
2019-02-08T18:46:32.953Z,1.17
2019-02-08T18:49:05.870Z,1.70
2019-02-08T18:51:38.605Z,1.60
2019-02-08T18:54:10.165Z,1.70
2019-02-08T18:56:41.181Z,1.77
2019-02-08T18:59:13.575Z,4.23
2019-02-08T19:01:44.501Z,2.33
2019-02-08T19:04:15.524Z,2.20
2019-02-08T19:06:46.474Z,2.17
2019-02-08T19:09:17.409Z,2.10
2019-02-08T19:11:48.457Z,2.17
2019-02-08T19:14:19.628Z,1.87
2019-02-08T19:16:51.914Z,1.80
2019-02-08T19:19:22.818Z,2.77
2019-02-08T19:21:53.822Z,4.07
2019-02-08T19:24:24.934Z,1.63
2019-02-08T19:26:56.067Z,1.53
2019-02-08T19:29:27.229Z,3.90
2019-02-08T19:31:58.472Z,4.67
2019-02-08T19:34:29.492Z,2.87
2019-02-08T19:37:00.523Z,3.93
2019-02-08T19:39:31.646Z,2.10
2019-02-08T19:42:02.988Z,1.40
2019-02-08T19:44:35.111Z,1.53
2019-02-08T19:47:07.275Z,2.07
2019-02-08T19:49:39.430Z,1.47
2019-02-08T19:52:10.476Z,1.63
2019-02-08T19:54:41.455Z,1.20
2019-02-08T19:57:12.523Z,1.70
2019-02-08T19:59:43.581Z,1.13
2019-02-08T20:02:14.609Z,1.37
2019-02-08T20:04:45.689Z,1.60
2019-02-08T20:07:16.721Z,1.20
2019-02-08T20:09:47.899Z,1.30
2019-02-08T20:12:19.043Z,1.33
2019-02-08T20:14:50.180Z,1.17
2019-02-08T20:17:22.269Z,1.20
2019-02-08T20:19:53.467Z,1.27
2019-02-08T20:22:25.425Z,1.43
2019-02-08T20:24:56.739Z,1.47
2019-02-08T20:27:27.926Z,1.73
2019-02-08T20:29:58.892Z,1.40
2019-02-08T20:32:30.047Z,1.60
2019-02-08T20:35:01.262Z,1.50
2019-02-08T20:37:32.489Z,1.50
2019-02-08T20:40:03.425Z,1.47
2019-02-08T20:42:34.514Z,1.37
2019-02-08T20:45:06.465Z,1.27
2019-02-08T20:47:37.595Z,1.27
2019-02-08T20:50:08.954Z,1.30
2019-02-08T20:52:40.053Z,0.93
2019-02-08T20:55:11.490Z,1.43
2019-02-08T20:57:42.418Z,2.33
2019-02-08T21:00:33.633Z,1.10
2019-02-08T21:03:06.785Z,1.40
2019-02-08T21:05:39.292Z,1.27
2019-02-08T21:08:10.866Z,2.10
2019-02-08T21:10:42.018Z,1.30
2019-02-08T21:13:13.586Z,0.90
2019-02-08T21:15:44.946Z,1.20
2019-02-08T21:18:16.270Z,1.63
2019-02-08T21:20:48.582Z,0.90
2019-02-08T21:23:20.583Z,1.20
2019-02-08T21:25:52.541Z,1.17
2019-02-08T21:28:23.568Z,1.50
2019-02-08T21:30:54.530Z,1.50
2019-02-08T21:33:26.750Z,0.87
2019-02-08T21:35:57.749Z,1.30
2019-02-08T21:38:28.853Z,1.10
2019-02-08T21:40:59.870Z,1.03
2019-02-08T21:43:31.896Z,1.40
2019-02-08T21:46:02.898Z,0.97
2019-02-08T21:48:35.203Z,1.03
2019-02-08T21:51:06.309Z,1.43
2019-02-08T21:53:37.380Z,0.70
2019-02-08T21:56:08.743Z,1.60
2019-02-08T21:58:40.009Z,0.90
2019-02-08T22:01:12.016Z,1.13
2019-02-08T22:03:44.158Z,1.20
2019-02-08T22:06:15.226Z,1.30
2019-02-08T22:08:46.248Z,2.00
2019-02-08T22:11:18.892Z,1.00
2019-02-08T22:13:50.013Z,1.10
2019-02-08T22:16:21.049Z,1.37
2019-02-08T22:18:52.158Z,0.90
2019-02-08T22:21:23.389Z,1.07
2019-02-08T22:23:54.334Z,1.20
2019-02-08T22:26:25.359Z,1.13
2019-02-08T22:28:56.283Z,1.47
2019-02-08T22:31:27.401Z,1.53
2019-02-08T22:33:58.553Z,1.60
2019-02-08T22:36:29.530Z,1.50
2019-02-08T22:39:01.657Z,1.37
2019-02-08T22:41:33.718Z,2.00
2019-02-08T22:44:05.845Z,1.57
2019-02-08T22:46:36.865Z,1.50
2019-02-08T22:49:09.053Z,1.47
2019-02-08T22:51:40.089Z,1.43
2019-02-08T22:54:11.237Z,1.90
2019-02-08T22:56:42.228Z,2.00
2019-02-08T22:59:13.343Z,1.77
2019-02-08T23:01:49.673Z,1.57
2019-02-08T23:04:21.765Z,1.73
2019-02-08T23:06:54.601Z,1.63
2019-02-08T23:09:25.436Z,1.73
2019-02-08T23:11:56.552Z,1.80
2019-02-08T23:14:27.493Z,2.37
2019-02-08T23:16:59.233Z,2.17
2019-02-08T23:19:31.109Z,1.80
2019-02-08T23:22:02.036Z,1.97
2019-02-08T23:24:33.075Z,2.60
2019-02-08T23:27:04.139Z,2.30
2019-02-08T23:29:35.269Z,1.90
2019-02-08T23:32:06.372Z,2.13
2019-02-08T23:34:37.383Z,2.13
2019-02-08T23:37:08.433Z,1.90
2019-02-08T23:39:39.385Z,2.33
2019-02-08T23:42:10.408Z,2.30
2019-02-08T23:44:41.553Z,3.63
2019-02-08T23:47:12.627Z,2.60
2019-02-08T23:49:44.150Z,2.40
2019-02-08T23:52:15.142Z,2.17
2019-02-08T23:54:46.269Z,3.17
2019-02-08T23:57:17.285Z,2.70
2019-02-08T23:59:48.203Z,1.97
